sensor_id;sensor_type;location;lat;lon;timestamp;pressure;altitude;pressure_sealevel;temperature;humidity
13241;BME280;6687;47.790;7.322;2023-08-07T05:24:10;99226.44;;;16.68;62.07
13241;BME280;6687;47.790;7.322;2023-08-07T05:26:37;99234.75;;;16.43;63.96
13241;BME280;6687;47.790;7.322;2023-08-07T05:29:04;99231.44;;;16.32;64.80
13241;BME280;6687;47.790;7.322;2023-08-07T05:31:32;99232.50;;;16.22;65.50
13241;BME280;6687;47.790;7.322;2023-08-07T05:33:59;99239.75;;;16.01;65.79
13241;BME280;6687;47.790;7.322;2023-08-07T05:36:25;99240.03;;;16.39;63.51
13241;BME280;6687;47.790;7.322;2023-08-07T05:38:52;99240.00;;;16.42;63.77
13241;BME280;6687;47.790;7.322;2023-08-07T05:41:20;99244.44;;;16.35;63.46
13241;BME280;6687;47.790;7.322;2023-08-07T05:43:47;99257.47;;;16.38;63.90
13241;BME280;6687;47.790;7.322;2023-08-07T05:46:14;99248.13;;;16.73;61.54
13241;BME280;6687;47.790;7.322;2023-08-07T05:48:40;99255.94;;;16.76;61.56
13241;BME280;6687;47.790;7.322;2023-08-07T05:51:07;99256.06;;;16.70;61.50
13241;BME280;6687;47.790;7.322;2023-08-07T05:53:35;99257.59;;;16.30;64.02
13241;BME280;6687;47.790;7.322;2023-08-07T05:56:01;99258.72;;;16.67;61.83
13241;BME280;6687;47.790;7.322;2023-08-07T05:58:29;99257.41;;;16.43;63.49
13241;BME280;6687;47.790;7.322;2023-08-07T06:00:56;99268.03;;;16.32;63.71
13241;BME280;6687;47.790;7.322;2023-08-07T06:03:23;99263.06;;;16.17;65.47
13241;BME280;6687;47.790;7.322;2023-08-07T06:05:49;99259.63;;;16.66;62.01
13241;BME280;6687;47.790;7.322;2023-08-07T06:08:16;99258.31;;;16.40;63.04
13241;BME280;6687;47.790;7.322;2023-08-07T06:10:43;99265.19;;;16.47;63.11
13241;BME280;6687;47.790;7.322;2023-08-07T06:13:10;99275.22;;;16.19;64.69
13241;BME280;6687;47.790;7.322;2023-08-07T06:15:38;99279.88;;;16.00;66.08
13241;BME280;6687;47.790;7.322;2023-08-07T06:18:04;99264.38;;;16.42;64.31
13241;BME280;6687;47.790;7.322;2023-08-07T06:20:31;99266.16;;;16.42;63.59
13241;BME280;6687;47.790;7.322;2023-08-07T06:22:58;99261.03;;;16.85;61.78
13241;BME280;6687;47.790;7.322;2023-08-07T06:25:24;99268.69;;;16.96;60.63
13241;BME280;6687;47.790;7.322;2023-08-07T06:27:51;99279.00;;;17.04;60.31
13241;BME280;6687;47.790;7.322;2023-08-07T06:30:18;99270.63;;;17.30;58.99
13241;BME280;6687;47.790;7.322;2023-08-07T06:32:46;99270.59;;;17.32;59.03
13241;BME280;6687;47.790;7.322;2023-08-07T06:35:13;99280.53;;;17.16;60.22
13241;BME280;6687;47.790;7.322;2023-08-07T06:37:40;99275.06;;;17.26;59.98
13241;BME280;6687;47.790;7.322;2023-08-07T06:40:08;99284.50;;;17.35;59.88
13241;BME280;6687;47.790;7.322;2023-08-07T06:42:35;99285.66;;;17.62;58.47
13241;BME280;6687;47.790;7.322;2023-08-07T06:45:01;99281.31;;;17.63;58.57
13241;BME280;6687;47.790;7.322;2023-08-07T06:47:28;99284.88;;;17.59;59.40
13241;BME280;6687;47.790;7.322;2023-08-07T06:49:56;99293.16;;;17.79;58.39
13241;BME280;6687;47.790;7.322;2023-08-07T06:52:23;99288.72;;;17.83;57.90
13241;BME280;6687;47.790;7.322;2023-08-07T06:54:50;99291.94;;;17.96;57.31
13241;BME280;6687;47.790;7.322;2023-08-07T06:57:17;99296.72;;;18.16;56.90
13241;BME280;6687;47.790;7.322;2023-08-07T06:59:44;99288.94;;;18.13;57.65
13241;BME280;6687;47.790;7.322;2023-08-07T07:02:11;99290.19;;;18.34;56.23
13241;BME280;6687;47.790;7.322;2023-08-07T07:04:37;99293.66;;;18.34;55.95
13241;BME280;6687;47.790;7.322;2023-08-07T07:07:06;99296.84;;;18.47;55.88
13241;BME280;6687;47.790;7.322;2023-08-07T07:09:32;99301.00;;;18.56;55.48
13241;BME280;6687;47.790;7.322;2023-08-07T07:11:59;99297.31;;;18.63;54.80
13241;BME280;6687;47.790;7.322;2023-08-07T07:14:26;99292.72;;;18.73;55.36
13241;BME280;6687;47.790;7.322;2023-08-07T07:16:52;99296.03;;;18.81;54.45
13241;BME280;6687;47.790;7.322;2023-08-07T07:19:19;99314.25;;;18.85;54.41
13241;BME280;6687;47.790;7.322;2023-08-07T07:21:46;99313.06;;;18.99;54.08
13241;BME280;6687;47.790;7.322;2023-08-07T07:24:14;99315.19;;;18.84;54.52
13241;BME280;6687;47.790;7.322;2023-08-07T07:26:40;99310.09;;;19.11;54.29
13241;BME280;6687;47.790;7.322;2023-08-07T07:29:07;99304.75;;;19.14;53.43
13241;BME280;6687;47.790;7.322;2023-08-07T07:31:34;99308.22;;;19.16;53.83
13241;BME280;6687;47.790;7.322;2023-08-07T07:34:01;99307.94;;;19.25;53.82
13241;BME280;6687;47.790;7.322;2023-08-07T07:36:28;99311.75;;;19.45;53.18
13241;BME280;6687;47.790;7.322;2023-08-07T07:38:55;99310.28;;;19.36;53.01
13241;BME280;6687;47.790;7.322;2023-08-07T07:41:23;99306.78;;;19.65;54.00
13241;BME280;6687;47.790;7.322;2023-08-07T07:43:50;99306.09;;;19.90;52.25
13241;BME280;6687;47.790;7.322;2023-08-07T07:46:16;99307.97;;;19.85;52.59
13241;BME280;6687;47.790;7.322;2023-08-07T07:48:43;99305.53;;;20.07;52.23
13241;BME280;6687;47.790;7.322;2023-08-07T07:51:10;99309.00;;;20.09;51.70
13241;BME280;6687;47.790;7.322;2023-08-07T07:53:36;99311.16;;;19.96;52.45
13241;BME280;6687;47.790;7.322;2023-08-07T07:56:03;99306.13;;;20.17;52.51
13241;BME280;6687;47.790;7.322;2023-08-07T07:58:31;99305.34;;;20.41;51.42
13241;BME280;6687;47.790;7.322;2023-08-07T08:00:58;99311.66;;;20.36;51.81
13241;BME280;6687;47.790;7.322;2023-08-07T08:03:25;99307.41;;;20.60;50.63
13241;BME280;6687;47.790;7.322;2023-08-07T08:05:52;99308.81;;;20.70;50.39
13241;BME280;6687;47.790;7.322;2023-08-07T08:08:18;99305.56;;;20.62;50.38
13241;BME280;6687;47.790;7.322;2023-08-07T08:10:46;99312.03;;;20.78;50.45
13241;BME280;6687;47.790;7.322;2023-08-07T08:13:13;99313.75;;;20.79;50.56
13241;BME280;6687;47.790;7.322;2023-08-07T08:15:41;99314.00;;;20.97;50.35
13241;BME280;6687;47.790;7.322;2023-08-07T08:18:08;99325.63;;;21.16;49.84
13241;BME280;6687;47.790;7.322;2023-08-07T08:20:35;99317.63;;;20.94;50.01
13241;BME280;6687;47.790;7.322;2023-08-07T08:23:01;99329.28;;;21.12;49.68
13241;BME280;6687;47.790;7.322;2023-08-07T08:25:28;99330.75;;;21.21;49.57
13241;BME280;6687;47.790;7.322;2023-08-07T08:27:55;99319.25;;;21.23;49.34
13241;BME280;6687;47.790;7.322;2023-08-07T08:30:22;99324.75;;;21.41;49.27
13241;BME280;6687;47.790;7.322;2023-08-07T08:32:50;99333.53;;;21.16;49.44
13241;BME280;6687;47.790;7.322;2023-08-07T08:35:16;99333.31;;;21.22;49.50
13241;BME280;6687;47.790;7.322;2023-08-07T08:37:43;99326.28;;;21.72;48.45
13241;BME280;6687;47.790;7.322;2023-08-07T08:40:10;99327.81;;;21.54;49.11
13241;BME280;6687;47.790;7.322;2023-08-07T08:42:42;99333.38;;;21.70;48.39
13241;BME280;6687;47.790;7.322;2023-08-07T08:45:09;99333.38;;;21.93;47.86
13241;BME280;6687;47.790;7.322;2023-08-07T08:47:38;99325.75;;;21.85;47.72
13241;BME280;6687;47.790;7.322;2023-08-07T08:50:09;99327.16;;;21.94;47.82
13241;BME280;6687;47.790;7.322;2023-08-07T08:52:38;99323.63;;;22.17;47.21
13241;BME280;6687;47.790;7.322;2023-08-07T08:55:05;99326.03;;;22.23;46.40
13241;BME280;6687;47.790;7.322;2023-08-07T08:57:33;99323.16;;;22.52;46.44
13241;BME280;6687;47.790;7.322;2023-08-07T09:00:00;99334.91;;;22.44;46.63
13241;BME280;6687;47.790;7.322;2023-08-07T09:02:30;99339.16;;;22.27;46.80
13241;BME280;6687;47.790;7.322;2023-08-07T09:04:57;99336.75;;;22.42;46.49
13241;BME280;6687;47.790;7.322;2023-08-07T09:07:25;99338.31;;;21.79;43.23
13241;BME280;6687;47.790;7.322;2023-08-07T09:09:53;99344.22;;;22.31;42.55
13241;BME280;6687;47.790;7.322;2023-08-07T09:12:25;99336.69;;;21.98;41.59
13241;BME280;6687;47.790;7.322;2023-08-07T09:14:57;99334.72;;;22.27;41.62
13241;BME280;6687;47.790;7.322;2023-08-07T09:17:27;99335.94;;;21.22;42.13
13241;BME280;6687;47.790;7.322;2023-08-07T09:19:54;99339.38;;;21.01;42.50
13241;BME280;6687;47.790;7.322;2023-08-07T09:22:21;99336.88;;;21.21;42.60
13241;BME280;6687;47.790;7.322;2023-08-07T09:24:49;99335.63;;;21.57;42.31
13241;BME280;6687;47.790;7.322;2023-08-07T09:27:16;99332.91;;;21.35;42.46
13241;BME280;6687;47.790;7.322;2023-08-07T09:29:43;99337.50;;;21.28;42.42
13241;BME280;6687;47.790;7.322;2023-08-07T09:32:12;99337.75;;;21.47;42.72
13241;BME280;6687;47.790;7.322;2023-08-07T09:34:39;99335.22;;;21.19;42.81
13241;BME280;6687;47.790;7.322;2023-08-07T09:37:07;99345.06;;;21.39;42.82
13241;BME280;6687;47.790;7.322;2023-08-07T09:39:33;99337.78;;;21.20;43.37
13241;BME280;6687;47.790;7.322;2023-08-07T09:42:02;99341.63;;;21.37;42.94
13241;BME280;6687;47.790;7.322;2023-08-07T09:44:35;99342.09;;;21.72;41.96
13241;BME280;6687;47.790;7.322;2023-08-07T09:47:11;99340.19;;;22.44;42.25
13241;BME280;6687;47.790;7.322;2023-08-07T09:49:38;99342.09;;;22.41;44.18
13241;BME280;6687;47.790;7.322;2023-08-07T09:52:06;99353.88;;;22.54;44.06
13241;BME280;6687;47.790;7.322;2023-08-07T09:54:33;99349.78;;;22.68;44.38
13241;BME280;6687;47.790;7.322;2023-08-07T09:57:02;99356.75;;;22.91;43.49
13241;BME280;6687;47.790;7.322;2023-08-07T09:59:29;99350.47;;;22.93;44.09
13241;BME280;6687;47.790;7.322;2023-08-07T10:01:56;99351.91;;;23.22;43.83
13241;BME280;6687;47.790;7.322;2023-08-07T10:04:23;99345.09;;;23.56;42.25
13241;BME280;6687;47.790;7.322;2023-08-07T10:06:51;99355.97;;;23.50;42.03
13241;BME280;6687;47.790;7.322;2023-08-07T10:09:17;99358.44;;;23.93;41.30
13241;BME280;6687;47.790;7.322;2023-08-07T10:11:44;99351.28;;;23.76;37.97
13241;BME280;6687;47.790;7.322;2023-08-07T10:14:13;99354.34;;;23.07;38.82
13241;BME280;6687;47.790;7.322;2023-08-07T10:16:41;99356.13;;;23.27;38.85
13241;BME280;6687;47.790;7.322;2023-08-07T10:19:08;99355.59;;;23.78;40.29
13241;BME280;6687;47.790;7.322;2023-08-07T10:21:36;99356.78;;;23.32;38.47
13241;BME280;6687;47.790;7.322;2023-08-07T10:24:05;99359.13;;;23.58;38.63
13241;BME280;6687;47.790;7.322;2023-08-07T10:26:32;99354.13;;;23.71;38.94
13241;BME280;6687;47.790;7.322;2023-08-07T10:29:00;99348.41;;;24.37;39.19
13241;BME280;6687;47.790;7.322;2023-08-07T10:31:30;99358.16;;;24.18;36.78
13241;BME280;6687;47.790;7.322;2023-08-07T10:33:58;99349.72;;;24.65;39.10
13241;BME280;6687;47.790;7.322;2023-08-07T10:36:32;99354.47;;;23.84;36.42
13241;BME280;6687;47.790;7.322;2023-08-07T10:39:06;99352.72;;;23.83;37.53
13241;BME280;6687;47.790;7.322;2023-08-07T10:41:38;99353.78;;;24.17;39.12
13241;BME280;6687;47.790;7.322;2023-08-07T10:44:05;99344.81;;;24.57;39.83
13241;BME280;6687;47.790;7.322;2023-08-07T10:46:47;99350.03;;;24.40;38.60
13241;BME280;6687;47.790;7.322;2023-08-07T10:49:30;99357.72;;;23.89;39.01
13241;BME280;6687;47.790;7.322;2023-08-07T10:51:57;99358.84;;;23.65;41.95
13241;BME280;6687;47.790;7.322;2023-08-07T10:54:23;99343.97;;;24.19;41.29
13241;BME280;6687;47.790;7.322;2023-08-07T10:56:52;99343.41;;;24.12;39.02
13241;BME280;6687;47.790;7.322;2023-08-07T10:59:20;99338.34;;;24.63;40.34
13241;BME280;6687;47.790;7.322;2023-08-07T11:01:53;99345.88;;;23.98;39.14
13241;BME280;6687;47.790;7.322;2023-08-07T11:04:22;99345.75;;;24.37;39.33
13241;BME280;6687;47.790;7.322;2023-08-07T11:06:51;99347.81;;;24.50;38.99
13241;BME280;6687;47.790;7.322;2023-08-07T11:09:18;99350.78;;;24.61;39.75
13241;BME280;6687;47.790;7.322;2023-08-07T11:11:46;99347.34;;;24.59;38.58
13241;BME280;6687;47.790;7.322;2023-08-07T11:14:15;99353.72;;;24.18;38.57
13241;BME280;6687;47.790;7.322;2023-08-07T11:16:43;99349.88;;;24.07;38.05
13241;BME280;6687;47.790;7.322;2023-08-07T11:19:12;99346.28;;;23.70;39.77
13241;BME280;6687;47.790;7.322;2023-08-07T11:21:41;99359.66;;;24.05;39.96
13241;BME280;6687;47.790;7.322;2023-08-07T11:24:09;99362.69;;;23.57;43.08
13241;BME280;6687;47.790;7.322;2023-08-07T11:26:36;99361.97;;;22.50;50.75
13241;BME280;6687;47.790;7.322;2023-08-07T11:29:03;99369.84;;;21.82;52.55
13241;BME280;6687;47.790;7.322;2023-08-07T11:31:30;99368.63;;;21.43;53.37
13241;BME280;6687;47.790;7.322;2023-08-07T11:33:58;99363.75;;;21.06;55.78
13241;BME280;6687;47.790;7.322;2023-08-07T11:36:26;99352.97;;;21.39;57.36
13241;BME280;6687;47.790;7.322;2023-08-07T11:38:53;99350.59;;;21.80;54.95
13241;BME280;6687;47.790;7.322;2023-08-07T11:41:19;99351.56;;;22.23;52.24
13241;BME280;6687;47.790;7.322;2023-08-07T11:43:46;99347.78;;;22.30;49.27
13241;BME280;6687;47.790;7.322;2023-08-07T11:46:15;99347.94;;;22.03;46.17
13241;BME280;6687;47.790;7.322;2023-08-07T11:48:43;99340.25;;;21.74;46.25
13241;BME280;6687;47.790;7.322;2023-08-07T11:51:10;99355.25;;;22.19;45.36
13241;BME280;6687;47.790;7.322;2023-08-07T11:53:39;99346.91;;;22.52;44.57
13241;BME280;6687;47.790;7.322;2023-08-07T11:56:08;99355.91;;;22.02;43.76
13241;BME280;6687;47.790;7.322;2023-08-07T11:58:38;99355.22;;;21.97;44.38
13241;BME280;6687;47.790;7.322;2023-08-07T12:01:06;99357.53;;;22.28;50.61
13241;BME280;6687;47.790;7.322;2023-08-07T12:03:35;99360.09;;;21.60;56.76
13241;BME280;6687;47.790;7.322;2023-08-07T12:06:05;99359.13;;;21.38;53.60
13241;BME280;6687;47.790;7.322;2023-08-07T12:08:33;99361.19;;;21.04;49.97
13241;BME280;6687;47.790;7.322;2023-08-07T12:11:02;99357.47;;;21.84;49.92
13241;BME280;6687;47.790;7.322;2023-08-07T12:13:30;99354.19;;;22.47;49.50
13241;BME280;6687;47.790;7.322;2023-08-07T12:16:00;99347.19;;;22.88;48.36
13241;BME280;6687;47.790;7.322;2023-08-07T12:18:29;99346.63;;;23.41;44.75
13241;BME280;6687;47.790;7.322;2023-08-07T12:21:00;99343.41;;;23.93;46.57
13241;BME280;6687;47.790;7.322;2023-08-07T12:23:28;99351.59;;;24.08;40.37
13241;BME280;6687;47.790;7.322;2023-08-07T12:25:55;99351.66;;;24.61;40.83
13241;BME280;6687;47.790;7.322;2023-08-07T12:28:23;99350.19;;;24.91;41.71
13241;BME280;6687;47.790;7.322;2023-08-07T12:30:51;99352.69;;;24.94;41.78
13241;BME280;6687;47.790;7.322;2023-08-07T12:33:18;99354.38;;;24.60;38.97
13241;BME280;6687;47.790;7.322;2023-08-07T12:35:45;99348.66;;;24.69;38.87
13241;BME280;6687;47.790;7.322;2023-08-07T12:38:12;99367.19;;;24.14;36.67
13241;BME280;6687;47.790;7.322;2023-08-07T12:40:40;99361.13;;;23.72;36.93
13241;BME280;6687;47.790;7.322;2023-08-07T12:43:07;99366.91;;;23.82;36.49
13241;BME280;6687;47.790;7.322;2023-08-07T12:45:35;99360.91;;;23.97;36.68
13241;BME280;6687;47.790;7.322;2023-08-07T12:48:02;99368.50;;;24.41;35.82
13241;BME280;6687;47.790;7.322;2023-08-07T12:50:29;99363.75;;;24.48;35.26
13241;BME280;6687;47.790;7.322;2023-08-07T12:52:56;99359.81;;;24.57;35.42
13241;BME280;6687;47.790;7.322;2023-08-07T12:55:24;99357.38;;;24.71;35.65
13241;BME280;6687;47.790;7.322;2023-08-07T12:57:52;99346.13;;;25.18;35.50
13241;BME280;6687;47.790;7.322;2023-08-07T13:00:19;99356.19;;;24.59;35.64
13241;BME280;6687;47.790;7.322;2023-08-07T13:02:49;99351.13;;;25.25;34.91
13241;BME280;6687;47.790;7.322;2023-08-07T13:05:17;99355.72;;;24.86;35.83
13241;BME280;6687;47.790;7.322;2023-08-07T13:07:44;99370.75;;;24.13;39.00
13241;BME280;6687;47.790;7.322;2023-08-07T13:10:13;99368.22;;;22.90;49.96
13241;BME280;6687;47.790;7.322;2023-08-07T13:12:40;99372.53;;;22.50;56.60
13241;BME280;6687;47.790;7.322;2023-08-07T13:15:09;99370.75;;;22.28;59.98
13241;BME280;6687;47.790;7.322;2023-08-07T13:17:37;99373.50;;;22.01;60.58
13241;BME280;6687;47.790;7.322;2023-08-07T13:20:10;99378.94;;;20.99;63.36
13241;BME280;6687;47.790;7.322;2023-08-07T13:22:38;99370.00;;;21.29;63.65
13241;BME280;6687;47.790;7.322;2023-08-07T13:25:06;99366.94;;;20.64;61.87
13241;BME280;6687;47.790;7.322;2023-08-07T13:27:34;99366.97;;;21.88;61.96
13241;BME280;6687;47.790;7.322;2023-08-07T13:30:01;99370.00;;;21.03;63.96
13241;BME280;6687;47.790;7.322;2023-08-07T13:32:28;99389.22;;;20.80;61.99
13241;BME280;6687;47.790;7.322;2023-08-07T13:34:55;99379.19;;;20.65;61.90
13241;BME280;6687;47.790;7.322;2023-08-07T13:37:23;99388.16;;;20.58;60.02
13241;BME280;6687;47.790;7.322;2023-08-07T13:39:50;99373.97;;;21.40;60.46
13241;BME280;6687;47.790;7.322;2023-08-07T13:42:18;99376.06;;;21.81;59.50
13241;BME280;6687;47.790;7.322;2023-08-07T13:44:45;99378.19;;;22.40;58.07
13241;BME280;6687;47.790;7.322;2023-08-07T13:47:12;99367.84;;;22.78;57.03
13241;BME280;6687;47.790;7.322;2023-08-07T13:49:39;99370.00;;;23.11;54.96
13241;BME280;6687;47.790;7.322;2023-08-07T13:52:06;99372.13;;;23.44;53.29
13241;BME280;6687;47.790;7.322;2023-08-07T13:54:34;99381.28;;;23.56;47.00
13241;BME280;6687;47.790;7.322;2023-08-07T13:57:01;99380.56;;;23.11;46.58
13241;BME280;6687;47.790;7.322;2023-08-07T13:59:27;99379.97;;;23.85;51.27
13241;BME280;6687;47.790;7.322;2023-08-07T14:01:54;99373.41;;;23.54;47.40
13241;BME280;6687;47.790;7.322;2023-08-07T14:04:21;99371.91;;;23.88;50.51
13241;BME280;6687;47.790;7.322;2023-08-07T14:06:48;99364.81;;;23.49;50.80
13241;BME280;6687;47.790;7.322;2023-08-07T14:09:15;99368.75;;;23.80;50.01
13241;BME280;6687;47.790;7.322;2023-08-07T14:11:45;99363.78;;;23.72;50.53
13241;BME280;6687;47.790;7.322;2023-08-07T14:14:11;99367.72;;;23.43;48.41
13241;BME280;6687;47.790;7.322;2023-08-07T14:16:38;99368.41;;;23.67;48.71
13241;BME280;6687;47.790;7.322;2023-08-07T14:19:05;99361.44;;;23.85;50.00
13241;BME280;6687;47.790;7.322;2023-08-07T14:21:31;99359.97;;;23.98;49.18
13241;BME280;6687;47.790;7.322;2023-08-07T14:23:58;99360.75;;;24.19;48.72
13241;BME280;6687;47.790;7.322;2023-08-07T14:26:25;99363.22;;;24.22;47.70
13241;BME280;6687;47.790;7.322;2023-08-07T14:28:53;99359.00;;;24.37;48.33
13241;BME280;6687;47.790;7.322;2023-08-07T14:31:20;99360.09;;;24.33;46.52
13241;BME280;6687;47.790;7.322;2023-08-07T14:33:46;99368.81;;;24.72;47.39
13241;BME280;6687;47.790;7.322;2023-08-07T14:36:13;99361.56;;;24.93;46.97
13241;BME280;6687;47.790;7.322;2023-08-07T14:38:40;99351.84;;;24.93;44.19
13241;BME280;6687;47.790;7.322;2023-08-07T14:41:07;99355.66;;;25.23;45.27
13241;BME280;6687;47.790;7.322;2023-08-07T14:43:34;99350.13;;;25.27;44.57
13241;BME280;6687;47.790;7.322;2023-08-07T14:46:02;99349.88;;;25.32;43.17
13241;BME280;6687;47.790;7.322;2023-08-07T14:48:28;99351.91;;;25.09;43.79
13241;BME280;6687;47.790;7.322;2023-08-07T14:50:55;99345.34;;;25.34;44.60
13241;BME280;6687;47.790;7.322;2023-08-07T14:53:23;99342.47;;;25.54;44.60
13241;BME280;6687;47.790;7.322;2023-08-07T14:55:50;99346.00;;;25.22;42.80
13241;BME280;6687;47.790;7.322;2023-08-07T14:58:17;99341.50;;;25.73;43.67
13241;BME280;6687;47.790;7.322;2023-08-07T15:00:44;99348.06;;;26.15;41.24
13241;BME280;6687;47.790;7.322;2023-08-07T15:03:12;99346.50;;;26.43;42.93
13241;BME280;6687;47.790;7.322;2023-08-07T15:05:39;99342.50;;;26.04;39.66
13241;BME280;6687;47.790;7.322;2023-08-07T15:08:06;99334.47;;;26.67;38.74
13241;BME280;6687;47.790;7.322;2023-08-07T15:10:32;99334.47;;;26.67;39.27
13241;BME280;6687;47.790;7.322;2023-08-07T15:13:00;99332.59;;;26.84;37.39
13241;BME280;6687;47.790;7.322;2023-08-07T15:15:27;99326.22;;;26.56;36.52
13241;BME280;6687;47.790;7.322;2023-08-07T15:17:54;99325.13;;;27.35;36.84
13241;BME280;6687;47.790;7.322;2023-08-07T15:20:22;99326.66;;;27.68;39.91
13241;BME280;6687;47.790;7.322;2023-08-07T15:22:50;99324.66;;;27.57;40.31
13241;BME280;6687;47.790;7.322;2023-08-07T15:25:17;99312.16;;;26.54;37.23
13241;BME280;6687;47.790;7.322;2023-08-07T15:27:43;99312.97;;;27.31;39.62
13241;BME280;6687;47.790;7.322;2023-08-07T15:30:11;99318.81;;;27.22;38.01
13241;BME280;6687;47.790;7.322;2023-08-07T15:32:38;99324.13;;;27.22;39.74
13241;BME280;6687;47.790;7.322;2023-08-07T15:35:06;99319.91;;;27.48;39.99
13241;BME280;6687;47.790;7.322;2023-08-07T15:37:35;99313.28;;;26.96;36.07
13241;BME280;6687;47.790;7.322;2023-08-07T15:40:02;99314.69;;;27.32;37.28
13241;BME280;6687;47.790;7.322;2023-08-07T15:42:29;99308.81;;;27.11;35.29
13241;BME280;6687;47.790;7.322;2023-08-07T15:44:56;99311.84;;;26.90;32.27
13241;BME280;6687;47.790;7.322;2023-08-07T15:47:23;99307.41;;;26.61;33.98
13241;BME280;6687;47.790;7.322;2023-08-07T15:49:50;99311.97;;;26.43;34.46
13241;BME280;6687;47.790;7.322;2023-08-07T15:52:16;99304.88;;;26.88;34.80
13241;BME280;6687;47.790;7.322;2023-08-07T15:54:45;99317.66;;;26.67;37.53
13241;BME280;6687;47.790;7.322;2023-08-07T15:57:12;99306.84;;;27.14;35.26
13241;BME280;6687;47.790;7.322;2023-08-07T15:59:39;99313.34;;;26.80;34.47
13241;BME280;6687;47.790;7.322;2023-08-07T16:02:06;99301.88;;;26.64;35.12
13241;BME280;6687;47.790;7.322;2023-08-07T16:04:34;99308.13;;;27.52;36.95
13241;BME280;6687;47.790;7.322;2023-08-07T16:07:01;99301.91;;;27.08;34.21
13241;BME280;6687;47.790;7.322;2023-08-07T16:09:29;99312.41;;;27.40;34.60
13241;BME280;6687;47.790;7.322;2023-08-07T16:11:57;99299.41;;;26.91;34.03
13241;BME280;6687;47.790;7.322;2023-08-07T16:14:24;99308.66;;;27.14;35.45
13241;BME280;6687;47.790;7.322;2023-08-07T16:16:51;99312.59;;;26.92;34.70
13241;BME280;6687;47.790;7.322;2023-08-07T16:19:17;99310.34;;;27.01;35.35
13241;BME280;6687;47.790;7.322;2023-08-07T16:21:44;99309.63;;;26.52;34.00
13241;BME280;6687;47.790;7.322;2023-08-07T16:24:11;99314.75;;;27.16;37.03
13241;BME280;6687;47.790;7.322;2023-08-07T16:26:38;99310.81;;;27.07;37.48
13241;BME280;6687;47.790;7.322;2023-08-07T16:29:06;99317.72;;;26.19;36.39
13241;BME280;6687;47.790;7.322;2023-08-07T16:31:33;99310.00;;;26.30;36.66
13241;BME280;6687;47.790;7.322;2023-08-07T16:33:59;99303.25;;;26.55;39.85
13241;BME280;6687;47.790;7.322;2023-08-07T16:36:26;99301.09;;;26.31;40.09
13241;BME280;6687;47.790;7.322;2023-08-07T16:38:53;99298.59;;;24.63;36.44
13241;BME280;6687;47.790;7.322;2023-08-07T16:41:20;99299.16;;;24.33;36.20
13241;BME280;6687;47.790;7.322;2023-08-07T16:43:46;99304.41;;;24.16;36.18
13241;BME280;6687;47.790;7.322;2023-08-07T16:46:14;99306.94;;;23.81;36.23
13241;BME280;6687;47.790;7.322;2023-08-07T16:48:42;99302.59;;;23.80;36.98
13241;BME280;6687;47.790;7.322;2023-08-07T16:51:10;99309.06;;;23.54;37.27
13241;BME280;6687;47.790;7.322;2023-08-07T16:53:38;99302.91;;;23.53;37.39
13241;BME280;6687;47.790;7.322;2023-08-07T16:56:05;99302.84;;;23.36;37.34
13241;BME280;6687;47.790;7.322;2023-08-07T16:58:32;99300.41;;;23.11;37.83
13241;BME280;6687;47.790;7.322;2023-08-07T17:00:59;99301.41;;;23.08;37.93
13241;BME280;6687;47.790;7.322;2023-08-07T17:03:27;99304.63;;;23.54;37.93
13241;BME280;6687;47.790;7.322;2023-08-07T17:05:54;99301.41;;;23.67;37.56
13241;BME280;6687;47.790;7.322;2023-08-07T17:08:21;99299.56;;;23.10;38.29
13241;BME280;6687;47.790;7.322;2023-08-07T17:10:48;99293.22;;;23.92;38.42
13241;BME280;6687;47.790;7.322;2023-08-07T17:13:15;99296.31;;;24.19;39.24
13241;BME280;6687;47.790;7.322;2023-08-07T17:15:42;99299.59;;;24.24;39.79
13241;BME280;6687;47.790;7.322;2023-08-07T17:18:09;99298.41;;;24.12;38.67
13241;BME280;6687;47.790;7.322;2023-08-07T17:20:37;99297.28;;;24.35;39.56
13241;BME280;6687;47.790;7.322;2023-08-07T17:23:04;99305.72;;;24.44;39.76
13241;BME280;6687;47.790;7.322;2023-08-07T17:25:31;99304.69;;;24.65;39.37
13241;BME280;6687;47.790;7.322;2023-08-07T17:27:58;99301.53;;;24.74;37.30
13241;BME280;6687;47.790;7.322;2023-08-07T17:30:25;99296.72;;;24.83;36.55
13241;BME280;6687;47.790;7.322;2023-08-07T17:32:52;99296.09;;;24.60;36.28
13241;BME280;6687;47.790;7.322;2023-08-07T17:35:18;99298.44;;;24.84;37.21
13241;BME280;6687;47.790;7.322;2023-08-07T17:37:48;99306.56;;;24.63;35.81
13241;BME280;6687;47.790;7.322;2023-08-07T17:40:15;99309.03;;;24.84;35.08
13241;BME280;6687;47.790;7.322;2023-08-07T17:42:42;99312.00;;;24.77;34.48
13241;BME280;6687;47.790;7.322;2023-08-07T17:45:09;99305.81;;;25.29;35.38
13241;BME280;6687;47.790;7.322;2023-08-07T17:47:36;99310.59;;;25.05;34.63
13241;BME280;6687;47.790;7.322;2023-08-07T17:50:03;99309.09;;;25.50;34.69
13241;BME280;6687;47.790;7.322;2023-08-07T17:52:30;99307.59;;;25.78;37.35
13241;BME280;6687;47.790;7.322;2023-08-07T17:54:59;99308.28;;;25.82;34.37
13241;BME280;6687;47.790;7.322;2023-08-07T17:57:26;99311.25;;;25.59;34.82
13241;BME280;6687;47.790;7.322;2023-08-07T17:59:53;99320.28;;;25.73;34.01
13241;BME280;6687;47.790;7.322;2023-08-07T18:02:20;99318.75;;;25.85;34.80
13241;BME280;6687;47.790;7.322;2023-08-07T18:04:46;99315.13;;;25.70;34.01
13241;BME280;6687;47.790;7.322;2023-08-07T18:07:13;99314.78;;;25.76;34.33
13241;BME280;6687;47.790;7.322;2023-08-07T18:09:41;99314.91;;;25.41;34.50
13241;BME280;6687;47.790;7.322;2023-08-07T18:12:10;99313.22;;;25.72;34.50
13241;BME280;6687;47.790;7.322;2023-08-07T18:14:36;99322.34;;;26.15;35.89
13241;BME280;6687;47.790;7.322;2023-08-07T18:17:04;99323.72;;;26.23;34.82
13241;BME280;6687;47.790;7.322;2023-08-07T18:19:31;99311.72;;;26.31;37.04
13241;BME280;6687;47.790;7.322;2023-08-07T18:21:57;99317.50;;;26.38;35.08
13241;BME280;6687;47.790;7.322;2023-08-07T18:24:25;99317.03;;;25.99;35.03
13241;BME280;6687;47.790;7.322;2023-08-07T18:26:52;99323.75;;;26.07;36.18
13241;BME280;6687;47.790;7.322;2023-08-07T18:29:20;99322.88;;;26.06;38.17
13241;BME280;6687;47.790;7.322;2023-08-07T18:31:48;99315.03;;;25.71;36.44
13241;BME280;6687;47.790;7.322;2023-08-07T18:34:15;99306.97;;;25.06;36.03